sensor_id;sensor_type;location;lat;lon;timestamp;temperature;humidity
61092;DHT22;46975;51.898;11.444;2022-08-01T00:01:03;19.50;99.90
61092;DHT22;46975;51.898;11.444;2022-08-01T00:03:29;19.40;99.90
61092;DHT22;46975;51.898;11.444;2022-08-01T00:05:55;19.50;99.90
61092;DHT22;46975;51.898;11.444;2022-08-01T00:08:20;19.50;99.90
61092;DHT22;46975;51.898;11.444;2022-08-01T00:10:46;19.50;99.90
61092;DHT22;46975;51.898;11.444;2022-08-01T00:13:11;19.60;99.90
61092;DHT22;46975;51.898;11.444;2022-08-01T00:15:37;19.60;99.90
61092;DHT22;46975;51.898;11.444;2022-08-01T00:18:03;19.60;99.90
61092;DHT22;46975;51.898;11.444;2022-08-01T00:20:28;19.50;99.90
61092;DHT22;46975;51.898;11.444;2022-08-01T00:22:54;19.50;99.90
61092;DHT22;46975;51.898;11.444;2022-08-01T00:25:19;19.50;99.90
61092;DHT22;46975;51.898;11.444;2022-08-01T00:27:45;19.50;99.90
61092;DHT22;46975;51.898;11.444;2022-08-01T00:30:11;19.50;99.90
61092;DHT22;46975;51.898;11.444;2022-08-01T00:32:36;19.50;99.90
61092;DHT22;46975;51.898;11.444;2022-08-01T00:35:02;19.40;99.90
61092;DHT22;46975;51.898;11.444;2022-08-01T00:37:28;19.40;99.90
61092;DHT22;46975;51.898;11.444;2022-08-01T00:39:53;19.40;99.90
61092;DHT22;46975;51.898;11.444;2022-08-01T00:42:19;19.30;99.90
61092;DHT22;46975;51.898;11.444;2022-08-01T00:44:44;19.30;99.90
61092;DHT22;46975;51.898;11.444;2022-08-01T00:47:10;19.30;99.90
61092;DHT22;46975;51.898;11.444;2022-08-01T00:49:36;19.20;99.90
61092;DHT22;46975;51.898;11.444;2022-08-01T00:52:03;19.20;99.90
61092;DHT22;46975;51.898;11.444;2022-08-01T00:54:29;19.20;99.90
61092;DHT22;46975;51.898;11.444;2022-08-01T00:56:55;19.30;99.90
61092;DHT22;46975;51.898;11.444;2022-08-01T00:59:22;19.30;99.90
61092;DHT22;46975;51.898;11.444;2022-08-01T01:01:49;19.30;99.90
61092;DHT22;46975;51.898;11.444;2022-08-01T01:04:15;19.30;99.90
61092;DHT22;46975;51.898;11.444;2022-08-01T01:17:56;19.30;99.90
61092;DHT22;46975;51.898;11.444;2022-08-01T01:20:21;19.20;99.90
61092;DHT22;46975;51.898;11.444;2022-08-01T01:30:44;19.50;99.90
61092;DHT22;46975;51.898;11.444;2022-08-01T01:33:11;19.40;99.90
61092;DHT22;46975;51.898;11.444;2022-08-01T01:35:42;19.40;99.90
61092;DHT22;46975;51.898;11.444;2022-08-01T01:38:20;19.40;99.90
61092;DHT22;46975;51.898;11.444;2022-08-01T01:40:47;19.40;99.90
61092;DHT22;46975;51.898;11.444;2022-08-01T01:43:15;19.40;99.90
61092;DHT22;46975;51.898;11.444;2022-08-01T01:45:42;19.50;99.90
61092;DHT22;46975;51.898;11.444;2022-08-01T01:48:10;19.50;99.90
61092;DHT22;46975;51.898;11.444;2022-08-01T01:50:38;19.60;99.90
61092;DHT22;46975;51.898;11.444;2022-08-01T01:53:05;19.60;99.90
61092;DHT22;46975;51.898;11.444;2022-08-01T01:55:32;19.60;99.90
61092;DHT22;46975;51.898;11.444;2022-08-01T01:58:00;19.70;99.90
61092;DHT22;46975;51.898;11.444;2022-08-01T02:00:26;19.70;99.90
61092;DHT22;46975;51.898;11.444;2022-08-01T02:02:54;19.80;99.90
61092;DHT22;46975;51.898;11.444;2022-08-01T02:05:20;19.90;99.90
61092;DHT22;46975;51.898;11.444;2022-08-01T02:07:47;19.90;99.90
61092;DHT22;46975;51.898;11.444;2022-08-01T02:10:16;19.90;99.90
61092;DHT22;46975;51.898;11.444;2022-08-01T02:12:43;19.90;99.90
61092;DHT22;46975;51.898;11.444;2022-08-01T02:15:11;20.00;99.90
61092;DHT22;46975;51.898;11.444;2022-08-01T02:17:43;19.90;99.90
61092;DHT22;46975;51.898;11.444;2022-08-01T02:20:10;19.90;99.90
61092;DHT22;46975;51.898;11.444;2022-08-01T02:22:58;19.90;99.90
61092;DHT22;46975;51.898;11.444;2022-08-01T02:25:32;19.90;99.90
61092;DHT22;46975;51.898;11.444;2022-08-01T02:28:03;19.90;99.90
61092;DHT22;46975;51.898;11.444;2022-08-01T02:30:35;19.90;99.90
61092;DHT22;46975;51.898;11.444;2022-08-01T02:33:12;19.90;99.90
61092;DHT22;46975;51.898;11.444;2022-08-01T02:35:42;19.80;99.90
61092;DHT22;46975;51.898;11.444;2022-08-01T02:38:10;19.80;99.90
61092;DHT22;46975;51.898;11.444;2022-08-01T02:40:39;19.80;99.90
61092;DHT22;46975;51.898;11.444;2022-08-01T02:43:05;19.80;99.90
61092;DHT22;46975;51.898;11.444;2022-08-01T02:45:35;19.80;99.90
61092;DHT22;46975;51.898;11.444;2022-08-01T02:48:05;19.90;99.90
61092;DHT22;46975;51.898;11.444;2022-08-01T02:50:32;19.80;99.90
61092;DHT22;46975;51.898;11.444;2022-08-01T02:53:00;19.80;99.90
61092;DHT22;46975;51.898;11.444;2022-08-01T02:55:28;19.80;99.90
61092;DHT22;46975;51.898;11.444;2022-08-01T02:57:55;19.80;99.90
61092;DHT22;46975;51.898;11.444;2022-08-01T03:00:22;19.90;99.90
61092;DHT22;46975;51.898;11.444;2022-08-01T03:02:49;19.90;99.90
61092;DHT22;46975;51.898;11.444;2022-08-01T03:05:17;19.90;99.90
61092;DHT22;46975;51.898;11.444;2022-08-01T03:07:43;19.90;99.90
61092;DHT22;46975;51.898;11.444;2022-08-01T03:10:10;19.90;99.90
61092;DHT22;46975;51.898;11.444;2022-08-01T03:12:37;20.00;99.90
61092;DHT22;46975;51.898;11.444;2022-08-01T03:15:05;19.90;99.90
61092;DHT22;46975;51.898;11.444;2022-08-01T03:17:32;19.90;99.90
61092;DHT22;46975;51.898;11.444;2022-08-01T03:19:59;19.90;99.90
61092;DHT22;46975;51.898;11.444;2022-08-01T03:22:29;20.00;99.90
61092;DHT22;46975;51.898;11.444;2022-08-01T03:24:56;20.00;99.90
61092;DHT22;46975;51.898;11.444;2022-08-01T03:27:25;20.00;99.90
61092;DHT22;46975;51.898;11.444;2022-08-01T03:29:51;20.00;99.90
61092;DHT22;46975;51.898;11.444;2022-08-01T03:32:19;19.90;99.90
61092;DHT22;46975;51.898;11.444;2022-08-01T03:34:45;19.90;99.90
61092;DHT22;46975;51.898;11.444;2022-08-01T03:37:27;19.90;99.90
61092;DHT22;46975;51.898;11.444;2022-08-01T03:40:09;19.90;99.90
61092;DHT22;46975;51.898;11.444;2022-08-01T03:42:43;19.90;99.90
61092;DHT22;46975;51.898;11.444;2022-08-01T03:45:15;19.90;99.90
61092;DHT22;46975;51.898;11.444;2022-08-01T03:47:46;19.80;99.90
61092;DHT22;46975;51.898;11.444;2022-08-01T03:50:13;19.90;99.90
61092;DHT22;46975;51.898;11.444;2022-08-01T03:52:41;19.90;99.90
61092;DHT22;46975;51.898;11.444;2022-08-01T03:55:10;19.90;99.90
61092;DHT22;46975;51.898;11.444;2022-08-01T03:57:37;19.90;99.90
61092;DHT22;46975;51.898;11.444;2022-08-01T04:00:05;19.70;99.90
61092;DHT22;46975;51.898;11.444;2022-08-01T04:02:34;19.60;99.90
61092;DHT22;46975;51.898;11.444;2022-08-01T04:05:00;19.60;99.90
61092;DHT22;46975;51.898;11.444;2022-08-01T04:07:29;19.60;99.90
61092;DHT22;46975;51.898;11.444;2022-08-01T04:09:55;19.60;99.90
61092;DHT22;46975;51.898;11.444;2022-08-01T04:12:21;19.60;99.90
61092;DHT22;46975;51.898;11.444;2022-08-01T04:14:47;19.70;99.90
61092;DHT22;46975;51.898;11.444;2022-08-01T04:17:13;19.70;99.90
61092;DHT22;46975;51.898;11.444;2022-08-01T04:19:38;19.70;99.90
61092;DHT22;46975;51.898;11.444;2022-08-01T04:22:05;19.80;99.90
61092;DHT22;46975;51.898;11.444;2022-08-01T04:24:32;19.80;99.90
61092;DHT22;46975;51.898;11.444;2022-08-01T04:27:00;19.80;99.90
61092;DHT22;46975;51.898;11.444;2022-08-01T04:29:27;19.80;99.90
61092;DHT22;46975;51.898;11.444;2022-08-01T04:31:56;19.80;99.90
61092;DHT22;46975;51.898;11.444;2022-08-01T04:34:25;19.80;99.90
61092;DHT22;46975;51.898;11.444;2022-08-01T04:36:53;19.90;99.90
61092;DHT22;46975;51.898;11.444;2022-08-01T04:39:20;19.90;99.90
61092;DHT22;46975;51.898;11.444;2022-08-01T04:41:49;19.90;99.90
61092;DHT22;46975;51.898;11.444;2022-08-01T04:44:15;19.90;99.90
61092;DHT22;46975;51.898;11.444;2022-08-01T04:46:42;19.90;99.90
61092;DHT22;46975;51.898;11.444;2022-08-01T04:49:10;19.90;99.90
61092;DHT22;46975;51.898;11.444;2022-08-01T04:51:52;19.80;99.90
61092;DHT22;46975;51.898;11.444;2022-08-01T04:54:23;19.80;99.90
61092;DHT22;46975;51.898;11.444;2022-08-01T04:56:50;19.70;99.90
61092;DHT22;46975;51.898;11.444;2022-08-01T04:59:16;19.70;99.90
61092;DHT22;46975;51.898;11.444;2022-08-01T05:02:00;19.70;99.90
61092;DHT22;46975;51.898;11.444;2022-08-01T05:04:25;19.80;99.90
61092;DHT22;46975;51.898;11.444;2022-08-01T05:06:51;19.90;99.90
61092;DHT22;46975;51.898;11.444;2022-08-01T05:09:17;20.00;99.90
61092;DHT22;46975;51.898;11.444;2022-08-01T05:11:43;20.00;99.90
61092;DHT22;46975;51.898;11.444;2022-08-01T05:14:09;20.00;99.90
61092;DHT22;46975;51.898;11.444;2022-08-01T05:16:34;19.90;99.90
61092;DHT22;46975;51.898;11.444;2022-08-01T05:19:00;19.80;99.90
61092;DHT22;46975;51.898;11.444;2022-08-01T05:21:27;19.70;99.90
61092;DHT22;46975;51.898;11.444;2022-08-01T05:23:53;19.60;99.90
61092;DHT22;46975;51.898;11.444;2022-08-01T05:26:19;19.60;99.90
61092;DHT22;46975;51.898;11.444;2022-08-01T05:28:44;19.50;99.90
61092;DHT22;46975;51.898;11.444;2022-08-01T05:31:10;19.50;99.90
61092;DHT22;46975;51.898;11.444;2022-08-01T05:33:35;19.60;99.90
61092;DHT22;46975;51.898;11.444;2022-08-01T05:36:02;19.70;99.90
61092;DHT22;46975;51.898;11.444;2022-08-01T05:38:28;19.70;99.90
61092;DHT22;46975;51.898;11.444;2022-08-01T05:40:54;19.80;99.90
61092;DHT22;46975;51.898;11.444;2022-08-01T05:43:19;19.90;99.90
61092;DHT22;46975;51.898;11.444;2022-08-01T05:45:45;19.90;99.90
61092;DHT22;46975;51.898;11.444;2022-08-01T05:48:11;19.80;99.90
61092;DHT22;46975;51.898;11.444;2022-08-01T05:50:36;19.80;99.90
61092;DHT22;46975;51.898;11.444;2022-08-01T05:53:02;19.90;99.90
61092;DHT22;46975;51.898;11.444;2022-08-01T05:55:28;20.20;99.90
61092;DHT22;46975;51.898;11.444;2022-08-01T05:57:54;20.20;99.90
61092;DHT22;46975;51.898;11.444;2022-08-01T06:00:20;20.40;99.90
61092;DHT22;46975;51.898;11.444;2022-08-01T06:02:45;20.50;99.90
61092;DHT22;46975;51.898;11.444;2022-08-01T06:05:11;20.50;99.90
61092;DHT22;46975;51.898;11.444;2022-08-01T06:07:37;20.50;99.90
61092;DHT22;46975;51.898;11.444;2022-08-01T06:10:04;20.60;99.90
61092;DHT22;46975;51.898;11.444;2022-08-01T06:12:32;20.60;99.90
61092;DHT22;46975;51.898;11.444;2022-08-01T06:14:58;20.60;99.90
61092;DHT22;46975;51.898;11.444;2022-08-01T06:17:25;20.70;99.90
61092;DHT22;46975;51.898;11.444;2022-08-01T06:19:50;20.60;99.90
61092;DHT22;46975;51.898;11.444;2022-08-01T06:22:16;20.70;99.90
61092;DHT22;46975;51.898;11.444;2022-08-01T06:24:42;20.70;99.90
61092;DHT22;46975;51.898;11.444;2022-08-01T06:27:07;20.80;99.90
61092;DHT22;46975;51.898;11.444;2022-08-01T06:29:33;20.70;99.90
61092;DHT22;46975;51.898;11.444;2022-08-01T06:32:00;20.60;99.90
61092;DHT22;46975;51.898;11.444;2022-08-01T06:34:26;20.60;99.90
61092;DHT22;46975;51.898;11.444;2022-08-01T06:36:52;20.80;99.90
61092;DHT22;46975;51.898;11.444;2022-08-01T06:39:17;20.90;99.90
61092;DHT22;46975;51.898;11.444;2022-08-01T06:41:43;20.80;99.90
61092;DHT22;46975;51.898;11.444;2022-08-01T06:44:12;20.70;99.90
61092;DHT22;46975;51.898;11.444;2022-08-01T06:46:37;20.90;99.90
61092;DHT22;46975;51.898;11.444;2022-08-01T06:49:03;21.00;99.90
61092;DHT22;46975;51.898;11.444;2022-08-01T06:51:29;21.10;99.90
61092;DHT22;46975;51.898;11.444;2022-08-01T06:53:54;21.20;99.90
61092;DHT22;46975;51.898;11.444;2022-08-01T06:56:20;21.10;99.90
61092;DHT22;46975;51.898;11.444;2022-08-01T06:58:46;21.20;99.90
61092;DHT22;46975;51.898;11.444;2022-08-01T07:01:12;21.00;99.90
61092;DHT22;46975;51.898;11.444;2022-08-01T07:03:37;20.70;99.90
61092;DHT22;46975;51.898;11.444;2022-08-01T07:06:03;20.60;99.90
61092;DHT22;46975;51.898;11.444;2022-08-01T07:08:29;20.50;99.90
61092;DHT22;46975;51.898;11.444;2022-08-01T07:10:55;20.40;99.90
61092;DHT22;46975;51.898;11.444;2022-08-01T07:13:27;20.10;99.90
61092;DHT22;46975;51.898;11.444;2022-08-01T07:15:52;19.90;99.90
61092;DHT22;46975;51.898;11.444;2022-08-01T07:18:18;19.80;99.90
61092;DHT22;46975;51.898;11.444;2022-08-01T07:20:44;19.90;99.90
61092;DHT22;46975;51.898;11.444;2022-08-01T07:23:12;20.00;99.90
61092;DHT22;46975;51.898;11.444;2022-08-01T07:25:37;20.00;99.90
61092;DHT22;46975;51.898;11.444;2022-08-01T07:28:03;20.00;99.90
61092;DHT22;46975;51.898;11.444;2022-08-01T07:30:29;20.20;99.90
61092;DHT22;46975;51.898;11.444;2022-08-01T07:32:55;20.40;99.90
61092;DHT22;46975;51.898;11.444;2022-08-01T07:35:21;20.40;99.90
61092;DHT22;46975;51.898;11.444;2022-08-01T07:37:46;20.40;99.90
61092;DHT22;46975;51.898;11.444;2022-08-01T07:40:12;20.50;99.90
61092;DHT22;46975;51.898;11.444;2022-08-01T07:42:38;20.70;99.90
61092;DHT22;46975;51.898;11.444;2022-08-01T07:45:04;20.80;99.90
61092;DHT22;46975;51.898;11.444;2022-08-01T07:47:29;21.00;99.90
61092;DHT22;46975;51.898;11.444;2022-08-01T07:50:05;21.20;99.90
61092;DHT22;46975;51.898;11.444;2022-08-01T07:52:31;21.20;99.90
61092;DHT22;46975;51.898;11.444;2022-08-01T07:54:58;21.00;99.90
61092;DHT22;46975;51.898;11.444;2022-08-01T07:57:24;20.70;99.90
61092;DHT22;46975;51.898;11.444;2022-08-01T07:59:51;20.60;99.90
61092;DHT22;46975;51.898;11.444;2022-08-01T08:02:16;20.70;99.90
61092;DHT22;46975;51.898;11.444;2022-08-01T08:04:42;20.80;99.90
61092;DHT22;46975;51.898;11.444;2022-08-01T08:07:08;21.00;99.90
61092;DHT22;46975;51.898;11.444;2022-08-01T08:09:33;21.20;99.90
61092;DHT22;46975;51.898;11.444;2022-08-01T08:11:59;21.70;99.90
61092;DHT22;46975;51.898;11.444;2022-08-01T08:14:25;22.40;99.90
61092;DHT22;46975;51.898;11.444;2022-08-01T08:16:51;23.30;99.90
61092;DHT22;46975;51.898;11.444;2022-08-01T08:19:16;23.70;99.90
61092;DHT22;46975;51.898;11.444;2022-08-01T08:21:42;23.70;99.90
61092;DHT22;46975;51.898;11.444;2022-08-01T08:24:10;23.40;99.90
61092;DHT22;46975;51.898;11.444;2022-08-01T08:26:45;23.50;99.90
61092;DHT22;46975;51.898;11.444;2022-08-01T08:29:11;23.30;99.90
61092;DHT22;46975;51.898;11.444;2022-08-01T08:31:37;23.30;99.90
61092;DHT22;46975;51.898;11.444;2022-08-01T08:34:04;23.30;99.90
61092;DHT22;46975;51.898;11.444;2022-08-01T08:36:29;23.20;99.90
61092;DHT22;46975;51.898;11.444;2022-08-01T08:38:55;23.20;99.90
61092;DHT22;46975;51.898;11.444;2022-08-01T08:41:22;23.20;99.90
61092;DHT22;46975;51.898;11.444;2022-08-01T08:43:48;23.50;99.90
61092;DHT22;46975;51.898;11.444;2022-08-01T08:46:14;23.40;99.90
61092;DHT22;46975;51.898;11.444;2022-08-01T08:48:41;23.10;99.90
61092;DHT22;46975;51.898;11.444;2022-08-01T08:51:08;22.70;99.90
61092;DHT22;46975;51.898;11.444;2022-08-01T08:53:37;22.50;99.90
61092;DHT22;46975;51.898;11.444;2022-08-01T08:56:03;22.30;99.90
61092;DHT22;46975;51.898;11.444;2022-08-01T08:58:32;22.00;99.90
61092;DHT22;46975;51.898;11.444;2022-08-01T09:01:05;21.80;99.90
61092;DHT22;46975;51.898;11.444;2022-08-01T09:03:31;21.60;99.90
61092;DHT22;46975;51.898;11.444;2022-08-01T09:05:56;21.60;99.90
61092;DHT22;46975;51.898;11.444;2022-08-01T09:08:22;21.60;99.90
61092;DHT22;46975;51.898;11.444;2022-08-01T09:10:49;21.60;99.90
61092;DHT22;46975;51.898;11.444;2022-08-01T09:13:14;21.70;99.90
61092;DHT22;46975;51.898;11.444;2022-08-01T09:15:46;21.80;99.90
61092;DHT22;46975;51.898;11.444;2022-08-01T09:18:34;21.90;99.90
61092;DHT22;46975;51.898;11.444;2022-08-01T09:23:45;22.00;99.90
61092;DHT22;46975;51.898;11.444;2022-08-01T09:26:14;22.20;99.90
61092;DHT22;46975;51.898;11.444;2022-08-01T09:28:41;22.90;99.90
61092;DHT22;46975;51.898;11.444;2022-08-01T09:31:16;23.20;99.90
61092;DHT22;46975;51.898;11.444;2022-08-01T09:33:56;23.60;99.90
61092;DHT22;46975;51.898;11.444;2022-08-01T09:36:27;24.00;99.90
61092;DHT22;46975;51.898;11.444;2022-08-01T09:39:13;25.10;99.90
61092;DHT22;46975;51.898;11.444;2022-08-01T09:41:39;25.30;99.90
61092;DHT22;46975;51.898;11.444;2022-08-01T09:44:05;24.80;99.90
61092;DHT22;46975;51.898;11.444;2022-08-01T09:46:31;24.50;99.90
61092;DHT22;46975;51.898;11.444;2022-08-01T09:49:03;24.10;99.90
61092;DHT22;46975;51.898;11.444;2022-08-01T09:51:37;24.20;99.90
61092;DHT22;46975;51.898;11.444;2022-08-01T09:54:05;23.90;99.90
61092;DHT22;46975;51.898;11.444;2022-08-01T09:56:41;23.50;99.90
61092;DHT22;46975;51.898;11.444;2022-08-01T09:59:08;23.70;99.90
61092;DHT22;46975;51.898;11.444;2022-08-01T10:01:44;24.20;99.90
61092;DHT22;46975;51.898;11.444;2022-08-01T10:04:16;24.90;99.90
61092;DHT22;46975;51.898;11.444;2022-08-01T10:06:44;25.60;99.90
61092;DHT22;46975;51.898;11.444;2022-08-01T10:09:12;26.20;99.90
61092;DHT22;46975;51.898;11.444;2022-08-01T10:11:41;25.80;99.90
61092;DHT22;46975;51.898;11.444;2022-08-01T10:14:07;25.30;99.90
61092;DHT22;46975;51.898;11.444;2022-08-01T10:16:35;25.10;99.90
61092;DHT22;46975;51.898;11.444;2022-08-01T10:19:03;24.70;99.90
61092;DHT22;46975;51.898;11.444;2022-08-01T10:21:32;24.00;99.90
61092;DHT22;46975;51.898;11.444;2022-08-01T10:24:02;23.70;99.90
61092;DHT22;46975;51.898;11.444;2022-08-01T10:26:32;23.70;99.90
61092;DHT22;46975;51.898;11.444;2022-08-01T10:28:58;24.30;99.90
61092;DHT22;46975;51.898;11.444;2022-08-01T10:31:24;25.30;99.90
61092;DHT22;46975;51.898;11.444;2022-08-01T10:33:51;25.60;99.90
61092;DHT22;46975;51.898;11.444;2022-08-01T10:36:19;25.50;99.90
61092;DHT22;46975;51.898;11.444;2022-08-01T10:38:46;25.20;99.90
61092;DHT22;46975;51.898;11.444;2022-08-01T10:41:12;25.00;99.90
61092;DHT22;46975;51.898;11.444;2022-08-01T10:43:41;24.50;99.90
61092;DHT22;46975;51.898;11.444;2022-08-01T10:46:07;24.30;99.90
61092;DHT22;46975;51.898;11.444;2022-08-01T10:48:55;24.20;99.90
61092;DHT22;46975;51.898;11.444;2022-08-01T10:51:23;24.30;99.90
61092;DHT22;46975;51.898;11.444;2022-08-01T10:53:53;24.30;99.90
61092;DHT22;46975;51.898;11.444;2022-08-01T10:56:20;25.10;99.90
61092;DHT22;46975;51.898;11.444;2022-08-01T10:58:47;25.60;99.90
61092;DHT22;46975;51.898;11.444;2022-08-01T11:09:04;25.70;99.90
61092;DHT22;46975;51.898;11.444;2022-08-01T11:11:30;25.70;99.90
61092;DHT22;46975;51.898;11.444;2022-08-01T11:14:05;25.50;99.90
61092;DHT22;46975;51.898;11.444;2022-08-01T11:16:39;25.60;99.90
61092;DHT22;46975;51.898;11.444;2022-08-01T11:19:07;26.30;99.90
61092;DHT22;46975;51.898;11.444;2022-08-01T11:27:25;26.30;99.90
61092;DHT22;46975;51.898;11.444;2022-08-01T11:32:57;25.30;99.90
61092;DHT22;46975;51.898;11.444;2022-08-01T11:35:23;24.80;99.90
61092;DHT22;46975;51.898;11.444;2022-08-01T11:37:52;24.60;99.90
61092;DHT22;46975;51.898;11.444;2022-08-01T11:40:23;24.20;99.90
61092;DHT22;46975;51.898;11.444;2022-08-01T11:42:51;24.40;99.90
61092;DHT22;46975;51.898;11.444;2022-08-01T11:48:22;23.90;99.90
61092;DHT22;46975;51.898;11.444;2022-08-01T11:50:50;23.70;99.90
61092;DHT22;46975;51.898;11.444;2022-08-01T11:53:16;24.10;99.90
61092;DHT22;46975;51.898;11.444;2022-08-01T11:55:49;24.50;99.90
61092;DHT22;46975;51.898;11.444;2022-08-01T11:58:20;25.00;99.90
61092;DHT22;46975;51.898;11.444;2022-08-01T12:00:57;25.30;99.90
61092;DHT22;46975;51.898;11.444;2022-08-01T12:03:24;25.00;99.90
61092;DHT22;46975;51.898;11.444;2022-08-01T12:05:52;25.00;99.90
61092;DHT22;46975;51.898;11.444;2022-08-01T12:08:28;25.10;99.90
61092;DHT22;46975;51.898;11.444;2022-08-01T12:10:54;25.30;99.90
61092;DHT22;46975;51.898;11.444;2022-08-01T12:13:20;25.70;99.90
61092;DHT22;46975;51.898;11.444;2022-08-01T12:15:47;26.10;99.90
61092;DHT22;46975;51.898;11.444;2022-08-01T12:18:13;27.10;99.90
61092;DHT22;46975;51.898;11.444;2022-08-01T12:20:41;27.20;99.90
61092;DHT22;46975;51.898;11.444;2022-08-01T12:23:11;28.20;99.90
61092;DHT22;46975;51.898;11.444;2022-08-01T12:25:37;28.50;99.90
61092;DHT22;46975;51.898;11.444;2022-08-01T12:28:07;28.70;99.90
61092;DHT22;46975;51.898;11.444;2022-08-01T12:30:34;29.10;99.90
61092;DHT22;46975;51.898;11.444;2022-08-01T12:33:02;28.20;99.90
61092;DHT22;46975;51.898;11.444;2022-08-01T12:35:29;27.50;99.90
61092;DHT22;46975;51.898;11.444;2022-08-01T12:37:57;26.70;99.90
61092;DHT22;46975;51.898;11.444;2022-08-01T12:40:32;26.10;99.90
61092;DHT22;46975;51.898;11.444;2022-08-01T12:43:00;25.80;99.90
61092;DHT22;46975;51.898;11.444;2022-08-01T12:45:48;25.50;99.90
61092;DHT22;46975;51.898;11.444;2022-08-01T12:48:16;26.40;99.90
61092;DHT22;46975;51.898;11.444;2022-08-01T12:50:45;26.80;99.90
61092;DHT22;46975;51.898;11.444;2022-08-01T12:53:11;26.80;99.90
61092;DHT22;46975;51.898;11.444;2022-08-01T12:55:50;26.80;99.90
61092;DHT22;46975;51.898;11.444;2022-08-01T12:58:17;26.40;99.90
61092;DHT22;46975;51.898;11.444;2022-08-01T13:00:45;26.40;99.90
61092;DHT22;46975;51.898;11.444;2022-08-01T13:03:19;26.10;99.90
61092;DHT22;46975;51.898;11.444;2022-08-01T13:05:51;26.40;99.90
61092;DHT22;46975;51.898;11.444;2022-08-01T13:10:48;27.70;99.90
61092;DHT22;46975;51.898;11.444;2022-08-01T13:13:16;27.30;99.90
61092;DHT22;46975;51.898;11.444;2022-08-01T13:15:44;27.50;99.90
61092;DHT22;46975;51.898;11.444;2022-08-01T13:18:30;28.80;99.90
61092;DHT22;46975;51.898;11.444;2022-08-01T13:21:16;29.80;99.90
61092;DHT22;46975;51.898;11.444;2022-08-01T13:26:47;28.60;99.90
61092;DHT22;46975;51.898;11.444;2022-08-01T13:29:18;28.30;99.90
61092;DHT22;46975;51.898;11.444;2022-08-01T13:31:44;28.60;99.90
61092;DHT22;46975;51.898;11.444;2022-08-01T13:34:10;28.20;99.90
61092;DHT22;46975;51.898;11.444;2022-08-01T13:36:37;27.70;99.90
61092;DHT22;46975;51.898;11.444;2022-08-01T13:39:03;27.80;99.90
61092;DHT22;46975;51.898;11.444;2022-08-01T13:41:47;28.30;99.90
61092;DHT22;46975;51.898;11.444;2022-08-01T13:44:14;28.30;99.90
61092;DHT22;46975;51.898;11.444;2022-08-01T13:46:41;27.40;99.90
61092;DHT22;46975;51.898;11.444;2022-08-01T13:49:09;27.10;99.90
61092;DHT22;46975;51.898;11.444;2022-08-01T13:51:36;27.10;99.90
61092;DHT22;46975;51.898;11.444;2022-08-01T13:54:02;27.20;99.90
61092;DHT22;46975;51.898;11.444;2022-08-01T13:56:28;27.10;99.90
61092;DHT22;46975;51.898;11.444;2022-08-01T13:58:54;27.00;99.90
61092;DHT22;46975;51.898;11.444;2022-08-01T14:01:20;26.70;99.90
61092;DHT22;46975;51.898;11.444;2022-08-01T14:03:46;27.10;99.90
61092;DHT22;46975;51.898;11.444;2022-08-01T14:06:13;27.30;99.90
61092;DHT22;46975;51.898;11.444;2022-08-01T14:08:41;27.70;99.90
61092;DHT22;46975;51.898;11.444;2022-08-01T14:11:07;27.70;99.90
61092;DHT22;46975;51.898;11.444;2022-08-01T14:13:33;27.50;99.90
61092;DHT22;46975;51.898;11.444;2022-08-01T14:15:59;28.10;99.90
61092;DHT22;46975;51.898;11.444;2022-08-01T14:18:25;27.80;99.90
61092;DHT22;46975;51.898;11.444;2022-08-01T14:20:51;27.10;99.90
61092;DHT22;46975;51.898;11.444;2022-08-01T14:23:17;26.50;99.90
61092;DHT22;46975;51.898;11.444;2022-08-01T14:25:42;26.20;99.90
61092;DHT22;46975;51.898;11.444;2022-08-01T14:28:09;26.00;99.90
61092;DHT22;46975;51.898;11.444;2022-08-01T14:30:35;26.60;99.90
61092;DHT22;46975;51.898;11.444;2022-08-01T14:33:01;27.20;99.90
61092;DHT22;46975;51.898;11.444;2022-08-01T14:35:27;27.10;99.90
61092;DHT22;46975;51.898;11.444;2022-08-01T14:37:52;26.80;99.90
61092;DHT22;46975;51.898;11.444;2022-08-01T14:40:18;26.40;99.90
61092;DHT22;46975;51.898;11.444;2022-08-01T14:42:44;26.20;99.90
61092;DHT22;46975;51.898;11.444;2022-08-01T14:45:11;26.10;99.90
61092;DHT22;46975;51.898;11.444;2022-08-01T14:47:38;26.10;99.90
61092;DHT22;46975;51.898;11.444;2022-08-01T14:50:06;26.60;99.90
61092;DHT22;46975;51.898;11.444;2022-08-01T14:52:33;27.50;99.90
61092;DHT22;46975;51.898;11.444;2022-08-01T14:54:59;28.20;99.90
61092;DHT22;46975;51.898;11.444;2022-08-01T14:57:25;28.50;99.90
61092;DHT22;46975;51.898;11.444;2022-08-01T14:59:50;28.00;99.90
61092;DHT22;46975;51.898;11.444;2022-08-01T15:02:16;27.10;99.90
61092;DHT22;46975;51.898;11.444;2022-08-01T15:04:43;26.80;99.90
61092;DHT22;46975;51.898;11.444;2022-08-01T15:07:10;26.70;99.90
61092;DHT22;46975;51.898;11.444;2022-08-01T15:09:36;27.10;99.90
61092;DHT22;46975;51.898;11.444;2022-08-01T15:12:02;27.20;99.90
61092;DHT22;46975;51.898;11.444;2022-08-01T15:14:28;27.10;99.90
61092;DHT22;46975;51.898;11.444;2022-08-01T15:17:12;27.00;99.90
61092;DHT22;46975;51.898;11.444;2022-08-01T15:19:38;26.80;99.90
61092;DHT22;46975;51.898;11.444;2022-08-01T15:22:03;26.80;99.90
61092;DHT22;46975;51.898;11.444;2022-08-01T15:24:30;26.90;99.90
61092;DHT22;46975;51.898;11.444;2022-08-01T15:26:56;27.10;99.90
61092;DHT22;46975;51.898;11.444;2022-08-01T15:29:21;27.50;99.90
61092;DHT22;46975;51.898;11.444;2022-08-01T15:31:47;27.10;99.90
61092;DHT22;46975;51.898;11.444;2022-08-01T15:34:12;27.20;99.90
61092;DHT22;46975;51.898;11.444;2022-08-01T15:36:38;27.40;99.90
61092;DHT22;46975;51.898;11.444;2022-08-01T15:39:04;27.50;99.90
61092;DHT22;46975;51.898;11.444;2022-08-01T15:41:29;27.70;99.90
61092;DHT22;46975;51.898;11.444;2022-08-01T15:43:55;27.70;99.90
61092;DHT22;46975;51.898;11.444;2022-08-01T15:46:20;27.40;99.90
61092;DHT22;46975;51.898;11.444;2022-08-01T15:48:46;27.10;99.90
61092;DHT22;46975;51.898;11.444;2022-08-01T15:51:12;27.00;99.90
61092;DHT22;46975;51.898;11.444;2022-08-01T15:53:37;26.40;99.90
61092;DHT22;46975;51.898;11.444;2022-08-01T15:56:03;26.10;99.90
61092;DHT22;46975;51.898;11.444;2022-08-01T15:58:29;26.00;99.90
61092;DHT22;46975;51.898;11.444;2022-08-01T16:00:54;25.80;99.90
61092;DHT22;46975;51.898;11.444;2022-08-01T16:03:20;26.00;99.90
61092;DHT22;46975;51.898;11.444;2022-08-01T16:05:46;25.70;99.90